Back to top

Big Piney, WY weather

Big Piney-Marbleton Airport (AMOS), Big Piney, WY: 12/12/2019 23:53
Visibility10 statute milesclear sky
View 7-Day Forecast
Area Summary
Sky/CloudsSky Clear
Weather [last 24 hours]None [snow ended 00:06; snow began 01:32 ended 01:43; snow began 02:03 ended 02:20; snow began 04:20; snow ended 05:28; snow began 12:03; snow ended 13:07; snow began 14:19; snow ended 15:45 ]
Pressure29.98 in.Hg (1015 hPa)
Dew Point15.1 °F (-9.4 °C)
Relative Humidity88.2 %
Last 24-Hour Precip.Trace
Reading TimePrecipitation
6-hr ending 12/12@16:53Trace
6-hr ending 12/12@04:53Trace
Temperature18 °F (-7.8 °C)blue thermometer
Wind Chill12.7 °F (-10.7 °C)
Reading TimeMinimum to Maximum Temperature
6-hr ending 12/12@22:5314 °F to 30.9 °F (-10 °C to -0.6 °C)
6-hr ending 12/12@16:5317.1 °F to 28.9 °F (-8.3 °C to -1.7 °C)
6-hr ending 12/12@04:538.1 °F to 15.1 °F (-13.3 °C to -9.4 °C)
24-hr ending 12/12@23:538.1 °F to 30.9 °F (-13.3 °C to -0.6 °C)
Wind3.45 MPH (3 KT) green arrow pointing 225 degrees
Wind FromSouthwest (230 Degrees)
Twilight Begins07:09Sunshine Yesterday
Sunrise07:41N/A
Sunset16:49
Twilight Ends17:21
METARKBPI 130653Z AUTO 23003KT 10SM CLR M08/M09 A2998 RMK AO2 SLP186 T10781094 410061133
Tags: